KOXD

Miami University Airport

Oxford, Ohio, USA
METAR KOXD 190715Z AUTO 18006KT 10SM CLR M01/M02 A3007 RMK AO2 T10071023
Observed Flight Rules
Dec-19 @ 07:15 UTC (17 minutes ago) Visual Flight Rules
Wind Visibility Clouds
180° at 6 knots 10 miles
  • Clear skies
Temperatures Readings
Current -1°C / 30°F
Dewpoint -2°C / 28°F
Humidity 93%
Altimeter 30.07" Hg
Pressure 1018 hPa
METAR KOXD 190715Z AUTO 18006KT 10SM CLR M01/M02 A3007 RMK AO2 T10071023
Observed Flight Rules
Dec-19 @ 07:15 UTC
(17 minutes ago)
VFR
Wind Visibility
180° at 6 knots 10 miles
Clouds
  • Clear skies
Temperature Dewpoint
-1°C / 30°F -2°C / 28°F
Humidity Altimeter Pressure
93% 30.07" Hg 1018 hPa